sensor_id;sensor_type;location;lat;lon;timestamp;P1;durP1;ratioP1;P2;durP2;ratioP2
43008;SDS011;28634;45.454;11.106;2022-07-18T00:00:04;10.00;;;8.75;;
43008;SDS011;28634;45.454;11.106;2022-07-18T00:02:34;10.18;;;9.25;;
43008;SDS011;28634;45.454;11.106;2022-07-18T00:05:01;10.57;;;9.48;;
43008;SDS011;28634;45.454;11.106;2022-07-18T00:07:29;11.82;;;9.80;;
43008;SDS011;28634;45.454;11.106;2022-07-18T00:09:56;10.95;;;9.55;;
43008;SDS011;28634;45.454;11.106;2022-07-18T00:12:26;10.20;;;9.20;;
43008;SDS011;28634;45.454;11.106;2022-07-18T00:14:55;10.68;;;9.57;;
43008;SDS011;28634;45.454;11.106;2022-07-18T00:17:22;11.13;;;10.10;;
43008;SDS011;28634;45.454;11.106;2022-07-18T00:19:49;11.77;;;10.02;;
43008;SDS011;28634;45.454;11.106;2022-07-18T00:22:17;12.50;;;9.98;;
43008;SDS011;28634;45.454;11.106;2022-07-18T00:24:45;10.63;;;9.63;;
43008;SDS011;28634;45.454;11.106;2022-07-18T00:27:17;11.00;;;9.90;;
43008;SDS011;28634;45.454;11.106;2022-07-18T00:29:44;11.40;;;10.30;;
43008;SDS011;28634;45.454;11.106;2022-07-18T00:32:19;11.07;;;9.97;;
43008;SDS011;28634;45.454;11.106;2022-07-18T00:34:48;11.25;;;10.13;;
43008;SDS011;28634;45.454;11.106;2022-07-18T00:37:18;11.07;;;9.80;;
43008;SDS011;28634;45.454;11.106;2022-07-18T00:39:45;12.60;;;9.68;;
43008;SDS011;28634;45.454;11.106;2022-07-18T00:42:13;12.02;;;10.30;;
43008;SDS011;28634;45.454;11.106;2022-07-18T00:44:40;10.82;;;9.73;;
43008;SDS011;28634;45.454;11.106;2022-07-18T00:47:07;9.98;;;8.98;;
43008;SDS011;28634;45.454;11.106;2022-07-18T00:49:38;11.07;;;9.60;;
43008;SDS011;28634;45.454;11.106;2022-07-18T00:52:05;10.85;;;9.73;;
43008;SDS011;28634;45.454;11.106;2022-07-18T00:54:32;10.55;;;9.50;;
43008;SDS011;28634;45.454;11.106;2022-07-18T00:57:11;10.90;;;9.18;;
43008;SDS011;28634;45.454;11.106;2022-07-18T00:59:40;9.38;;;8.40;;
43008;SDS011;28634;45.454;11.106;2022-07-18T01:02:27;11.43;;;8.95;;
43008;SDS011;28634;45.454;11.106;2022-07-18T01:04:55;9.30;;;8.30;;
43008;SDS011;28634;45.454;11.106;2022-07-18T01:07:22;11.40;;;8.10;;
43008;SDS011;28634;45.454;11.106;2022-07-18T01:09:51;8.25;;;7.20;;
43008;SDS011;28634;45.454;11.106;2022-07-18T01:12:18;7.25;;;6.55;;
43008;SDS011;28634;45.454;11.106;2022-07-18T01:14:47;7.60;;;5.85;;
43008;SDS011;28634;45.454;11.106;2022-07-18T01:17:18;6.70;;;6.00;;
43008;SDS011;28634;45.454;11.106;2022-07-18T01:19:46;6.10;;;5.47;;
43008;SDS011;28634;45.454;11.106;2022-07-18T01:22:14;7.32;;;5.20;;
43008;SDS011;28634;45.454;11.106;2022-07-18T01:24:42;6.93;;;5.40;;
43008;SDS011;28634;45.454;11.106;2022-07-18T01:27:14;6.05;;;5.07;;
43008;SDS011;28634;45.454;11.106;2022-07-18T01:29:44;5.65;;;5.03;;
43008;SDS011;28634;45.454;11.106;2022-07-18T01:32:12;5.35;;;4.30;;
43008;SDS011;28634;45.454;11.106;2022-07-18T01:34:44;6.10;;;4.43;;
43008;SDS011;28634;45.454;11.106;2022-07-18T01:37:17;4.95;;;3.90;;
43008;SDS011;28634;45.454;11.106;2022-07-18T01:39:45;4.55;;;4.10;;
43008;SDS011;28634;45.454;11.106;2022-07-18T01:42:13;4.75;;;4.05;;
43008;SDS011;28634;45.454;11.106;2022-07-18T01:44:43;4.60;;;4.20;;
43008;SDS011;28634;45.454;11.106;2022-07-18T01:47:11;6.25;;;4.10;;
43008;SDS011;28634;45.454;11.106;2022-07-18T01:49:39;5.80;;;3.80;;
43008;SDS011;28634;45.454;11.106;2022-07-18T01:52:07;5.13;;;3.92;;
43008;SDS011;28634;45.454;11.106;2022-07-18T01:54:36;5.88;;;4.10;;
43008;SDS011;28634;45.454;11.106;2022-07-18T01:57:04;4.53;;;4.13;;
43008;SDS011;28634;45.454;11.106;2022-07-18T01:59:32;5.00;;;4.00;;
43008;SDS011;28634;45.454;11.106;2022-07-18T02:02:03;5.00;;;4.03;;
43008;SDS011;28634;45.454;11.106;2022-07-18T02:04:31;5.25;;;4.10;;
43008;SDS011;28634;45.454;11.106;2022-07-18T02:07:17;5.43;;;3.83;;
43008;SDS011;28634;45.454;11.106;2022-07-18T02:09:46;5.07;;;4.22;;
43008;SDS011;28634;45.454;11.106;2022-07-18T02:12:13;6.50;;;4.45;;
43008;SDS011;28634;45.454;11.106;2022-07-18T02:14:42;5.15;;;4.40;;
43008;SDS011;28634;45.454;11.106;2022-07-18T02:17:10;4.68;;;3.75;;
43008;SDS011;28634;45.454;11.106;2022-07-18T02:19:38;5.03;;;4.10;;
43008;SDS011;28634;45.454;11.106;2022-07-18T02:22:08;6.88;;;4.57;;
43008;SDS011;28634;45.454;11.106;2022-07-18T02:24:35;6.72;;;4.55;;
43008;SDS011;28634;45.454;11.106;2022-07-18T02:27:03;6.45;;;4.47;;
43008;SDS011;28634;45.454;11.106;2022-07-18T02:29:31;7.90;;;4.85;;
43008;SDS011;28634;45.454;11.106;2022-07-18T02:32:00;6.57;;;4.93;;
43008;SDS011;28634;45.454;11.106;2022-07-18T02:34:30;8.18;;;5.55;;
43008;SDS011;28634;45.454;11.106;2022-07-18T02:37:01;7.55;;;5.65;;
43008;SDS011;28634;45.454;11.106;2022-07-18T02:39:30;5.82;;;5.05;;
43008;SDS011;28634;45.454;11.106;2022-07-18T02:42:01;7.63;;;5.60;;
43008;SDS011;28634;45.454;11.106;2022-07-18T02:44:30;9.07;;;5.45;;
43008;SDS011;28634;45.454;11.106;2022-07-18T02:46:57;6.45;;;5.43;;
43008;SDS011;28634;45.454;11.106;2022-07-18T02:49:25;8.68;;;5.75;;
43008;SDS011;28634;45.454;11.106;2022-07-18T02:51:57;8.10;;;6.13;;
43008;SDS011;28634;45.454;11.106;2022-07-18T02:54:35;7.18;;;5.90;;
43008;SDS011;28634;45.454;11.106;2022-07-18T02:57:03;8.23;;;5.72;;
43008;SDS011;28634;45.454;11.106;2022-07-18T02:59:31;7.25;;;6.38;;
43008;SDS011;28634;45.454;11.106;2022-07-18T03:01:59;8.93;;;7.20;;
43008;SDS011;28634;45.454;11.106;2022-07-18T03:04:28;8.55;;;7.35;;
43008;SDS011;28634;45.454;11.106;2022-07-18T03:06:59;8.82;;;7.43;;
43008;SDS011;28634;45.454;11.106;2022-07-18T03:09:26;8.35;;;7.28;;
43008;SDS011;28634;45.454;11.106;2022-07-18T03:11:55;8.93;;;7.35;;
43008;SDS011;28634;45.454;11.106;2022-07-18T03:14:25;8.98;;;7.85;;
43008;SDS011;28634;45.454;11.106;2022-07-18T03:16:56;8.52;;;7.35;;
43008;SDS011;28634;45.454;11.106;2022-07-18T03:19:23;8.52;;;7.70;;
43008;SDS011;28634;45.454;11.106;2022-07-18T03:21:51;8.45;;;7.57;;
43008;SDS011;28634;45.454;11.106;2022-07-18T03:24:18;8.75;;;7.05;;
43008;SDS011;28634;45.454;11.106;2022-07-18T03:26:45;10.93;;;7.78;;
43008;SDS011;28634;45.454;11.106;2022-07-18T03:29:14;8.50;;;7.07;;
43008;SDS011;28634;45.454;11.106;2022-07-18T03:31:44;7.68;;;6.88;;
43008;SDS011;28634;45.454;11.106;2022-07-18T03:34:12;7.95;;;7.15;;
43008;SDS011;28634;45.454;11.106;2022-07-18T03:36:39;8.50;;;7.07;;
43008;SDS011;28634;45.454;11.106;2022-07-18T03:39:07;8.43;;;7.07;;
43008;SDS011;28634;45.454;11.106;2022-07-18T03:41:36;8.07;;;6.82;;
43008;SDS011;28634;45.454;11.106;2022-07-18T03:44:05;8.25;;;6.95;;
43008;SDS011;28634;45.454;11.106;2022-07-18T03:46:34;9.93;;;7.47;;
43008;SDS011;28634;45.454;11.106;2022-07-18T03:49:03;7.75;;;6.78;;
43008;SDS011;28634;45.454;11.106;2022-07-18T03:51:30;8.48;;;7.57;;
43008;SDS011;28634;45.454;11.106;2022-07-18T03:53:59;7.90;;;7.10;;
43008;SDS011;28634;45.454;11.106;2022-07-18T03:56:26;10.02;;;7.50;;
43008;SDS011;28634;45.454;11.106;2022-07-18T03:58:53;9.57;;;7.70;;
43008;SDS011;28634;45.454;11.106;2022-07-18T04:01:22;7.18;;;6.35;;
43008;SDS011;28634;45.454;11.106;2022-07-18T04:03:50;10.43;;;7.63;;
43008;SDS011;28634;45.454;11.106;2022-07-18T04:06:17;7.03;;;6.13;;
43008;SDS011;28634;45.454;11.106;2022-07-18T04:08:45;7.95;;;7.05;;
43008;SDS011;28634;45.454;11.106;2022-07-18T04:11:13;7.63;;;6.50;;
43008;SDS011;28634;45.454;11.106;2022-07-18T04:13:47;7.65;;;6.15;;
43008;SDS011;28634;45.454;11.106;2022-07-18T04:16:16;6.68;;;5.97;;
43008;SDS011;28634;45.454;11.106;2022-07-18T04:18:43;8.57;;;5.93;;
43008;SDS011;28634;45.454;11.106;2022-07-18T04:21:11;9.00;;;6.00;;
43008;SDS011;28634;45.454;11.106;2022-07-18T04:23:39;7.20;;;5.55;;
43008;SDS011;28634;45.454;11.106;2022-07-18T04:26:07;6.75;;;5.60;;
43008;SDS011;28634;45.454;11.106;2022-07-18T04:28:35;7.90;;;5.00;;
43008;SDS011;28634;45.454;11.106;2022-07-18T04:31:02;8.45;;;4.75;;
43008;SDS011;28634;45.454;11.106;2022-07-18T04:33:32;5.82;;;4.95;;
43008;SDS011;28634;45.454;11.106;2022-07-18T04:35:59;6.60;;;4.60;;
43008;SDS011;28634;45.454;11.106;2022-07-18T04:38:26;5.55;;;5.05;;
43008;SDS011;28634;45.454;11.106;2022-07-18T04:40:58;6.03;;;5.35;;
43008;SDS011;28634;45.454;11.106;2022-07-18T04:43:28;6.15;;;4.20;;
43008;SDS011;28634;45.454;11.106;2022-07-18T04:45:55;5.45;;;4.32;;
43008;SDS011;28634;45.454;11.106;2022-07-18T04:48:22;4.90;;;4.25;;
43008;SDS011;28634;45.454;11.106;2022-07-18T04:50:53;6.68;;;4.38;;
43008;SDS011;28634;45.454;11.106;2022-07-18T04:53:22;8.48;;;4.05;;
43008;SDS011;28634;45.454;11.106;2022-07-18T04:55:49;6.53;;;4.10;;
43008;SDS011;28634;45.454;11.106;2022-07-18T04:58:16;5.45;;;4.53;;
43008;SDS011;28634;45.454;11.106;2022-07-18T05:00:44;5.32;;;4.50;;
43008;SDS011;28634;45.454;11.106;2022-07-18T05:03:11;8.50;;;4.38;;
43008;SDS011;28634;45.454;11.106;2022-07-18T05:05:40;5.85;;;4.63;;
43008;SDS011;28634;45.454;11.106;2022-07-18T05:08:07;5.32;;;4.40;;
43008;SDS011;28634;45.454;11.106;2022-07-18T05:10:34;6.18;;;4.18;;
43008;SDS011;28634;45.454;11.106;2022-07-18T05:13:05;5.28;;;4.55;;
43008;SDS011;28634;45.454;11.106;2022-07-18T05:15:35;9.82;;;4.70;;
43008;SDS011;28634;45.454;11.106;2022-07-18T05:18:02;6.43;;;3.90;;
43008;SDS011;28634;45.454;11.106;2022-07-18T05:20:30;5.95;;;4.10;;
43008;SDS011;28634;45.454;11.106;2022-07-18T05:22:58;7.80;;;4.70;;
43008;SDS011;28634;45.454;11.106;2022-07-18T05:25:28;5.88;;;4.00;;
43008;SDS011;28634;45.454;11.106;2022-07-18T05:27:55;4.60;;;4.07;;
43008;SDS011;28634;45.454;11.106;2022-07-18T05:30:23;4.90;;;4.28;;
43008;SDS011;28634;45.454;11.106;2022-07-18T05:32:53;6.28;;;3.58;;
43008;SDS011;28634;45.454;11.106;2022-07-18T05:35:21;8.02;;;4.35;;
43008;SDS011;28634;45.454;11.106;2022-07-18T05:37:49;5.55;;;3.83;;
43008;SDS011;28634;45.454;11.106;2022-07-18T05:40:18;7.22;;;3.85;;
43008;SDS011;28634;45.454;11.106;2022-07-18T05:42:45;5.65;;;3.95;;
43008;SDS011;28634;45.454;11.106;2022-07-18T05:45:21;6.43;;;3.83;;
43008;SDS011;28634;45.454;11.106;2022-07-18T05:47:52;6.18;;;3.72;;
43008;SDS011;28634;45.454;11.106;2022-07-18T05:50:20;6.20;;;3.70;;
43008;SDS011;28634;45.454;11.106;2022-07-18T05:52:49;5.43;;;3.65;;
43008;SDS011;28634;45.454;11.106;2022-07-18T05:55:17;7.85;;;3.60;;
43008;SDS011;28634;45.454;11.106;2022-07-18T05:57:45;5.05;;;3.53;;
43008;SDS011;28634;45.454;11.106;2022-07-18T06:00:12;6.20;;;3.58;;
43008;SDS011;28634;45.454;11.106;2022-07-18T06:02:40;5.00;;;3.95;;
43008;SDS011;28634;45.454;11.106;2022-07-18T06:05:07;6.20;;;3.72;;
43008;SDS011;28634;45.454;11.106;2022-07-18T06:07:53;6.68;;;3.95;;
43008;SDS011;28634;45.454;11.106;2022-07-18T06:10:21;5.13;;;3.10;;
43008;SDS011;28634;45.454;11.106;2022-07-18T06:12:50;3.97;;;3.22;;
43008;SDS011;28634;45.454;11.106;2022-07-18T06:15:17;5.13;;;3.15;;
43008;SDS011;28634;45.454;11.106;2022-07-18T06:17:45;7.13;;;3.28;;
43008;SDS011;28634;45.454;11.106;2022-07-18T06:20:12;5.63;;;3.10;;
43008;SDS011;28634;45.454;11.106;2022-07-18T06:22:39;5.68;;;3.10;;
43008;SDS011;28634;45.454;11.106;2022-07-18T06:25:07;7.68;;;3.45;;
43008;SDS011;28634;45.454;11.106;2022-07-18T06:27:35;6.32;;;3.70;;
43008;SDS011;28634;45.454;11.106;2022-07-18T06:30:03;4.88;;;3.45;;
43008;SDS011;28634;45.454;11.106;2022-07-18T06:32:31;6.93;;;3.30;;
43008;SDS011;28634;45.454;11.106;2022-07-18T06:34:58;6.25;;;3.47;;
43008;SDS011;28634;45.454;11.106;2022-07-18T06:37:25;4.85;;;3.30;;
43008;SDS011;28634;45.454;11.106;2022-07-18T06:39:52;5.22;;;3.00;;
43008;SDS011;28634;45.454;11.106;2022-07-18T06:42:19;5.15;;;3.25;;
43008;SDS011;28634;45.454;11.106;2022-07-18T06:44:46;5.60;;;3.30;;
43008;SDS011;28634;45.454;11.106;2022-07-18T06:47:13;6.30;;;3.50;;
43008;SDS011;28634;45.454;11.106;2022-07-18T06:49:40;4.93;;;3.30;;
43008;SDS011;28634;45.454;11.106;2022-07-18T06:52:08;5.53;;;3.50;;
43008;SDS011;28634;45.454;11.106;2022-07-18T06:54:38;5.88;;;3.40;;
43008;SDS011;28634;45.454;11.106;2022-07-18T06:57:07;4.53;;;3.35;;
43008;SDS011;28634;45.454;11.106;2022-07-18T06:59:35;5.00;;;3.30;;
43008;SDS011;28634;45.454;11.106;2022-07-18T07:02:03;6.25;;;3.50;;
43008;SDS011;28634;45.454;11.106;2022-07-18T07:04:31;7.20;;;3.80;;
43008;SDS011;28634;45.454;11.106;2022-07-18T07:07:00;5.53;;;3.72;;
43008;SDS011;28634;45.454;11.106;2022-07-18T07:09:35;5.22;;;3.20;;
43008;SDS011;28634;45.454;11.106;2022-07-18T07:12:06;6.07;;;3.30;;
43008;SDS011;28634;45.454;11.106;2022-07-18T07:14:45;5.85;;;3.40;;
43008;SDS011;28634;45.454;11.106;2022-07-18T07:17:30;6.22;;;3.35;;
43008;SDS011;28634;45.454;11.106;2022-07-18T07:19:59;6.88;;;3.10;;
43008;SDS011;28634;45.454;11.106;2022-07-18T07:22:29;10.10;;;3.78;;
43008;SDS011;28634;45.454;11.106;2022-07-18T07:24:58;7.43;;;3.50;;
43008;SDS011;28634;45.454;11.106;2022-07-18T07:27:54;6.80;;;3.70;;
43008;SDS011;28634;45.454;11.106;2022-07-18T07:30:24;6.88;;;3.38;;
43008;SDS011;28634;45.454;11.106;2022-07-18T07:33:02;4.40;;;3.35;;
43008;SDS011;28634;45.454;11.106;2022-07-18T07:35:30;6.07;;;3.53;;
43008;SDS011;28634;45.454;11.106;2022-07-18T07:38:06;5.85;;;3.90;;
43008;SDS011;28634;45.454;11.106;2022-07-18T07:40:39;6.20;;;3.70;;
43008;SDS011;28634;45.454;11.106;2022-07-18T07:43:10;9.75;;;3.92;;
43008;SDS011;28634;45.454;11.106;2022-07-18T07:45:46;7.20;;;4.22;;
43008;SDS011;28634;45.454;11.106;2022-07-18T07:48:20;6.55;;;4.30;;
43008;SDS011;28634;45.454;11.106;2022-07-18T07:50:51;5.72;;;4.13;;
43008;SDS011;28634;45.454;11.106;2022-07-18T07:53:20;5.55;;;4.30;;
43008;SDS011;28634;45.454;11.106;2022-07-18T07:55:57;7.18;;;5.25;;
43008;SDS011;28634;45.454;11.106;2022-07-18T08:01:03;6.50;;;5.00;;
43008;SDS011;28634;45.454;11.106;2022-07-18T08:03:43;7.57;;;4.88;;
43008;SDS011;28634;45.454;11.106;2022-07-18T08:06:12;8.90;;;4.80;;
43008;SDS011;28634;45.454;11.106;2022-07-18T08:08:48;7.03;;;4.93;;
43008;SDS011;28634;45.454;11.106;2022-07-18T08:11:28;6.07;;;5.20;;
43008;SDS011;28634;45.454;11.106;2022-07-18T08:13:59;6.30;;;5.05;;
43008;SDS011;28634;45.454;11.106;2022-07-18T08:16:28;8.15;;;4.90;;
43008;SDS011;28634;45.454;11.106;2022-07-18T08:19:09;6.35;;;5.00;;
43008;SDS011;28634;45.454;11.106;2022-07-18T08:21:36;8.00;;;5.15;;
43008;SDS011;28634;45.454;11.106;2022-07-18T08:24:04;7.10;;;4.70;;
43008;SDS011;28634;45.454;11.106;2022-07-18T08:26:35;6.22;;;5.22;;
43008;SDS011;28634;45.454;11.106;2022-07-18T08:29:13;6.22;;;4.97;;
43008;SDS011;28634;45.454;11.106;2022-07-18T08:31:45;6.20;;;4.93;;
43008;SDS011;28634;45.454;11.106;2022-07-18T08:34:22;8.10;;;4.90;;
43008;SDS011;28634;45.454;11.106;2022-07-18T08:36:51;7.32;;;4.75;;
43008;SDS011;28634;45.454;11.106;2022-07-18T08:39:19;8.50;;;4.78;;
43008;SDS011;28634;45.454;11.106;2022-07-18T08:41:46;5.18;;;4.32;;
43008;SDS011;28634;45.454;11.106;2022-07-18T08:44:29;6.55;;;4.63;;
43008;SDS011;28634;45.454;11.106;2022-07-18T08:47:16;5.22;;;4.18;;
43008;SDS011;28634;45.454;11.106;2022-07-18T08:57:49;7.05;;;4.30;;
43008;SDS011;28634;45.454;11.106;2022-07-18T09:58:17;9.55;;;7.05;;
43008;SDS011;28634;45.454;11.106;2022-07-18T10:00:51;11.40;;;7.13;;
43008;SDS011;28634;45.454;11.106;2022-07-18T10:04:17;9.13;;;7.82;;
43008;SDS011;28634;45.454;11.106;2022-07-18T10:06:46;7.82;;;6.70;;
43008;SDS011;28634;45.454;11.106;2022-07-18T10:09:14;8.55;;;6.95;;
43008;SDS011;28634;45.454;11.106;2022-07-18T10:11:41;11.10;;;7.28;;
43008;SDS011;28634;45.454;11.106;2022-07-18T10:14:09;7.57;;;6.75;;
43008;SDS011;28634;45.454;11.106;2022-07-18T10:16:37;8.07;;;7.22;;
43008;SDS011;28634;45.454;11.106;2022-07-18T10:19:05;8.20;;;6.30;;
43008;SDS011;28634;45.454;11.106;2022-07-18T10:21:32;8.10;;;6.40;;
43008;SDS011;28634;45.454;11.106;2022-07-18T10:24:00;8.05;;;6.43;;
43008;SDS011;28634;45.454;11.106;2022-07-18T10:26:28;8.35;;;6.05;;
43008;SDS011;28634;45.454;11.106;2022-07-18T10:31:33;7.93;;;6.25;;
43008;SDS011;28634;45.454;11.106;2022-07-18T10:36:37;6.70;;;5.97;;
43008;SDS011;28634;45.454;11.106;2022-07-18T10:39:15;10.52;;;6.60;;
43008;SDS011;28634;45.454;11.106;2022-07-18T11:00:34;6.22;;;5.63;;
43008;SDS011;28634;45.454;11.106;2022-07-18T11:03:11;6.47;;;5.45;;
43008;SDS011;28634;45.454;11.106;2022-07-18T11:05:50;6.03;;;5.10;;
43008;SDS011;28634;45.454;11.106;2022-07-18T11:08:24;9.18;;;5.28;;
43008;SDS011;28634;45.454;11.106;2022-07-18T11:21:23;6.13;;;5.43;;
43008;SDS011;28634;45.454;11.106;2022-07-18T11:28:34;8.07;;;4.78;;
43008;SDS011;28634;45.454;11.106;2022-07-18T11:31:04;8.90;;;4.47;;
43008;SDS011;28634;45.454;11.106;2022-07-18T11:33:34;8.15;;;5.43;;
43008;SDS011;28634;45.454;11.106;2022-07-18T11:36:14;6.35;;;4.68;;
43008;SDS011;28634;45.454;11.106;2022-07-18T11:38:49;4.97;;;4.47;;
43008;SDS011;28634;45.454;11.106;2022-07-18T11:41:19;6.68;;;4.53;;
43008;SDS011;28634;45.454;11.106;2022-07-18T11:43:48;7.30;;;4.80;;
43008;SDS011;28634;45.454;11.106;2022-07-18T11:46:17;6.18;;;4.57;;
43008;SDS011;28634;45.454;11.106;2022-07-18T11:48:46;4.97;;;4.45;;
43008;SDS011;28634;45.454;11.106;2022-07-18T11:51:16;6.78;;;5.10;;
43008;SDS011;28634;45.454;11.106;2022-07-18T11:56:12;4.95;;;4.43;;
43008;SDS011;28634;45.454;11.106;2022-07-18T11:58:43;5.53;;;4.60;;
43008;SDS011;28634;45.454;11.106;2022-07-18T12:01:11;6.53;;;4.35;;
43008;SDS011;28634;45.454;11.106;2022-07-18T12:03:40;7.15;;;4.72;;
43008;SDS011;28634;45.454;11.106;2022-07-18T12:06:15;7.80;;;4.75;;
43008;SDS011;28634;45.454;11.106;2022-07-18T12:08:47;6.05;;;4.65;;
43008;SDS011;28634;45.454;11.106;2022-07-18T12:14:04;6.78;;;4.65;;
43008;SDS011;28634;45.454;11.106;2022-07-18T12:16:43;6.60;;;4.33;;
43008;SDS011;28634;45.454;11.106;2022-07-18T12:19:17;5.07;;;4.38;;
43008;SDS011;28634;45.454;11.106;2022-07-18T12:24:22;6.05;;;4.30;;
43008;SDS011;28634;45.454;11.106;2022-07-18T12:27:15;5.82;;;4.32;;
43008;SDS011;28634;45.454;11.106;2022-07-18T12:32:40;7.72;;;3.97;;
43008;SDS011;28634;45.454;11.106;2022-07-18T12:35:20;7.80;;;4.85;;
43008;SDS011;28634;45.454;11.106;2022-07-18T12:37:56;5.68;;;4.00;;
43008;SDS011;28634;45.454;11.106;2022-07-18T12:45:51;5.05;;;4.03;;
43008;SDS011;28634;45.454;11.106;2022-07-18T12:48:19;4.55;;;3.85;;
43008;SDS011;28634;45.454;11.106;2022-07-18T12:50:54;5.97;;;4.25;;
43008;SDS011;28634;45.454;11.106;2022-07-18T12:53:40;5.22;;;3.70;;
43008;SDS011;28634;45.454;11.106;2022-07-18T12:56:08;8.45;;;4.40;;
43008;SDS011;28634;45.454;11.106;2022-07-18T12:58:36;6.05;;;4.20;;
43008;SDS011;28634;45.454;11.106;2022-07-18T13:01:07;9.93;;;4.57;;
43008;SDS011;28634;45.454;11.106;2022-07-18T13:03:34;7.63;;;4.50;;
43008;SDS011;28634;45.454;11.106;2022-07-18T13:06:02;5.13;;;3.78;;
43008;SDS011;28634;45.454;11.106;2022-07-18T13:08:29;5.15;;;3.63;;
43008;SDS011;28634;45.454;11.106;2022-07-18T13:11:00;6.88;;;4.00;;
43008;SDS011;28634;45.454;11.106;2022-07-18T13:13:27;5.30;;;4.10;;
43008;SDS011;28634;45.454;11.106;2022-07-18T13:15:54;5.50;;;4.15;;
43008;SDS011;28634;45.454;11.106;2022-07-18T13:18:22;7.05;;;4.85;;
43008;SDS011;28634;45.454;11.106;2022-07-18T13:20:49;6.20;;;4.47;;
43008;SDS011;28634;45.454;11.106;2022-07-18T13:23:16;6.72;;;4.38;;
43008;SDS011;28634;45.454;11.106;2022-07-18T13:25:44;5.90;;;4.15;;
43008;SDS011;28634;45.454;11.106;2022-07-18T13:28:14;5.50;;;4.18;;
43008;SDS011;28634;45.454;11.106;2022-07-18T13:30:41;5.85;;;4.55;;
43008;SDS011;28634;45.454;11.106;2022-07-18T13:33:09;8.23;;;4.20;;
43008;SDS011;28634;45.454;11.106;2022-07-18T13:35:36;7.47;;;4.20;;
43008;SDS011;28634;45.454;11.106;2022-07-18T13:38:03;5.03;;;4.45;;
43008;SDS011;28634;45.454;11.106;2022-07-18T13:40:30;7.53;;;4.47;;
43008;SDS011;28634;45.454;11.106;2022-07-18T13:43:02;5.50;;;3.90;;
43008;SDS011;28634;45.454;11.106;2022-07-18T13:45:29;8.30;;;4.70;;
43008;SDS011;28634;45.454;11.106;2022-07-18T13:48:01;7.82;;;4.03;;
43008;SDS011;28634;45.454;11.106;2022-07-18T14:14:01;8.98;;;4.35;;
43008;SDS011;28634;45.454;11.106;2022-07-18T14:35:22;7.40;;;4.47;;
43008;SDS011;28634;45.454;11.106;2022-07-18T15:10:02;6.43;;;4.40;;
43008;SDS011;28634;45.454;11.106;2022-07-18T15:28:56;8.30;;;4.88;;
43008;SDS011;28634;45.454;11.106;2022-07-18T15:31:26;7.32;;;4.82;;
43008;SDS011;28634;45.454;11.106;2022-07-18T15:33:55;6.72;;;4.60;;
43008;SDS011;28634;45.454;11.106;2022-07-18T15:36:33;5.72;;;4.47;;
43008;SDS011;28634;45.454;11.106;2022-07-18T15:42:49;7.38;;;4.57;;
43008;SDS011;28634;45.454;11.106;2022-07-18T15:55:23;9.27;;;5.03;;
43008;SDS011;28634;45.454;11.106;2022-07-18T15:57:56;10.40;;;4.68;;
43008;SDS011;28634;45.454;11.106;2022-07-18T16:00:23;7.38;;;4.63;;
43008;SDS011;28634;45.454;11.106;2022-07-18T16:02:51;6.97;;;4.35;;
43008;SDS011;28634;45.454;11.106;2022-07-18T16:05:19;7.63;;;4.30;;
43008;SDS011;28634;45.454;11.106;2022-07-18T16:07:46;7.47;;;4.47;;
43008;SDS011;28634;45.454;11.106;2022-07-18T16:10:14;7.32;;;4.60;;
43008;SDS011;28634;45.454;11.106;2022-07-18T16:12:41;8.30;;;4.68;;
43008;SDS011;28634;45.454;11.106;2022-07-18T16:15:09;13.68;;;4.47;;
43008;SDS011;28634;45.454;11.106;2022-07-18T16:17:39;6.35;;;4.45;;
43008;SDS011;28634;45.454;11.106;2022-07-18T16:20:25;8.27;;;4.30;;
43008;SDS011;28634;45.454;11.106;2022-07-18T16:22:52;6.68;;;4.20;;
43008;SDS011;28634;45.454;11.106;2022-07-18T16:25:20;5.85;;;3.95;;
43008;SDS011;28634;45.454;11.106;2022-07-18T16:27:47;9.10;;;4.43;;
43008;SDS011;28634;45.454;11.106;2022-07-18T16:30:14;5.50;;;3.90;;
43008;SDS011;28634;45.454;11.106;2022-07-18T16:32:41;7.82;;;4.18;;
43008;SDS011;28634;45.454;11.106;2022-07-18T16:35:08;8.63;;;3.65;;
43008;SDS011;28634;45.454;11.106;2022-07-18T16:37:35;6.28;;;3.65;;
43008;SDS011;28634;45.454;11.106;2022-07-18T16:40:04;6.53;;;3.90;;
43008;SDS011;28634;45.454;11.106;2022-07-18T16:42:32;6.97;;;4.15;;
43008;SDS011;28634;45.454;11.106;2022-07-18T16:44:59;5.93;;;3.67;;
43008;SDS011;28634;45.454;11.106;2022-07-18T16:47:29;5.32;;;3.72;;
43008;SDS011;28634;45.454;11.106;2022-07-18T16:49:56;7.07;;;3.80;;
43008;SDS011;28634;45.454;11.106;2022-07-18T16:52:27;6.78;;;3.85;;
43008;SDS011;28634;45.454;11.106;2022-07-18T16:55:06;5.60;;;3.97;;
43008;SDS011;28634;45.454;11.106;2022-07-18T17:00:13;7.20;;;4.07;;
43008;SDS011;28634;45.454;11.106;2022-07-18T17:02:42;7.80;;;3.95;;
43008;SDS011;28634;45.454;11.106;2022-07-18T17:05:09;6.93;;;3.85;;
43008;SDS011;28634;45.454;11.106;2022-07-18T17:07:37;4.45;;;3.90;;
43008;SDS011;28634;45.454;11.106;2022-07-18T17:10:05;6.97;;;3.55;;
43008;SDS011;28634;45.454;11.106;2022-07-18T17:12:33;5.93;;;3.60;;
43008;SDS011;28634;45.454;11.106;2022-07-18T17:15:02;7.63;;;3.75;;
43008;SDS011;28634;45.454;11.106;2022-07-18T17:17:32;7.03;;;3.72;;
43008;SDS011;28634;45.454;11.106;2022-07-18T17:20:37;6.70;;;3.53;;
43008;SDS011;28634;45.454;11.106;2022-07-18T17:23:04;5.55;;;3.70;;
43008;SDS011;28634;45.454;11.106;2022-07-18T17:25:31;4.82;;;3.17;;
43008;SDS011;28634;45.454;11.106;2022-07-18T17:28:04;6.85;;;3.67;;
43008;SDS011;28634;45.454;11.106;2022-07-18T17:30:32;10.25;;;3.97;;
43008;SDS011;28634;45.454;11.106;2022-07-18T17:32:59;5.13;;;3.78;;
43008;SDS011;28634;45.454;11.106;2022-07-18T17:35:47;5.38;;;3.78;;
43008;SDS011;28634;45.454;11.106;2022-07-18T17:38:15;7.25;;;3.50;;
43008;SDS011;28634;45.454;11.106;2022-07-18T17:40:43;4.82;;;3.90;;
43008;SDS011;28634;45.454;11.106;2022-07-18T17:43:11;6.82;;;3.47;;
43008;SDS011;28634;45.454;11.106;2022-07-18T17:45:38;6.45;;;3.70;;
43008;SDS011;28634;45.454;11.106;2022-07-18T17:48:06;7.05;;;3.70;;
43008;SDS011;28634;45.454;11.106;2022-07-18T17:50:34;5.95;;;3.70;;
43008;SDS011;28634;45.454;11.106;2022-07-18T17:53:02;6.97;;;3.75;;
43008;SDS011;28634;45.454;11.106;2022-07-18T17:55:29;6.97;;;3.83;;
43008;SDS011;28634;45.454;11.106;2022-07-18T17:57:57;5.68;;;3.83;;
43008;SDS011;28634;45.454;11.106;2022-07-18T18:00:24;6.63;;;3.90;;
43008;SDS011;28634;45.454;11.106;2022-07-18T18:02:51;5.20;;;3.40;;
43008;SDS011;28634;45.454;11.106;2022-07-18T18:05:19;7.47;;;3.83;;
43008;SDS011;28634;45.454;11.106;2022-07-18T18:07:46;8.23;;;3.80;;
43008;SDS011;28634;45.454;11.106;2022-07-18T18:10:13;5.97;;;3.53;;
43008;SDS011;28634;45.454;11.106;2022-07-18T18:12:40;5.35;;;3.45;;
43008;SDS011;28634;45.454;11.106;2022-07-18T18:15:08;5.30;;;3.58;;
43008;SDS011;28634;45.454;11.106;2022-07-18T18:17:35;7.57;;;3.88;;
43008;SDS011;28634;45.454;11.106;2022-07-18T18:20:05;6.57;;;3.78;;
43008;SDS011;28634;45.454;11.106;2022-07-18T18:22:33;5.15;;;3.58;;
43008;SDS011;28634;45.454;11.106;2022-07-18T18:25:00;6.45;;;3.78;;
43008;SDS011;28634;45.454;11.106;2022-07-18T18:27:27;10.38;;;3.90;;
43008;SDS011;28634;45.454;11.106;2022-07-18T18:29:54;8.93;;;3.80;;
43008;SDS011;28634;45.454;11.106;2022-07-18T18:32:21;6.18;;;3.90;;
43008;SDS011;28634;45.454;11.106;2022-07-18T18:34:48;8.13;;;3.60;;
43008;SDS011;28634;45.454;11.106;2022-07-18T18:37:19;14.18;;;5.95;;
43008;SDS011;28634;45.454;11.106;2022-07-18T18:39:46;6.07;;;3.63;;